createdAt,value
2018-10-16T00:01:45.022Z,13.20
2018-10-16T00:04:14.247Z,13.27
2018-10-16T00:06:43.461Z,13.10
2018-10-16T00:09:12.704Z,13.00
2018-10-16T00:12:07.026Z,13.27
2018-10-16T00:14:36.258Z,13.58
2018-10-16T00:17:05.944Z,14.10
2018-10-16T00:19:35.228Z,14.00
2018-10-16T00:27:02.570Z,14.00
2018-10-16T00:29:31.794Z,14.00
2018-10-16T00:32:01.098Z,12.90
2018-10-16T00:34:30.307Z,13.90
2018-10-16T00:36:59.540Z,12.97
2018-10-16T00:39:28.772Z,13.30
2018-10-16T00:41:58.480Z,12.97
2018-10-16T00:44:27.700Z,13.37
2018-10-16T00:46:56.911Z,12.90
2018-10-16T00:49:26.199Z,13.00
2018-10-16T00:51:55.413Z,12.70
2018-10-16T00:54:24.634Z,12.63
2018-10-16T00:56:53.873Z,12.30
2018-10-16T00:59:23.074Z,11.77
2018-10-16T01:01:52.346Z,12.57
2018-10-16T01:04:21.556Z,12.70
2018-10-16T01:06:50.794Z,12.27
2018-10-16T01:09:20.012Z,13.50
2018-10-16T01:11:49.283Z,13.40
2018-10-16T01:14:18.486Z,13.77
2018-10-16T01:16:47.731Z,12.83
2018-10-16T01:19:17.053Z,14.70
2018-10-16T01:21:46.292Z,13.30
2018-10-16T01:24:15.615Z,13.07
2018-10-16T01:26:44.823Z,13.30
2018-10-16T01:29:14.047Z,13.63
2018-10-16T01:31:43.307Z,13.33
2018-10-16T01:34:12.543Z,12.33
2018-10-16T01:36:41.785Z,12.27
2018-10-16T01:39:11.051Z,12.23
2018-10-16T01:41:40.305Z,12.83
2018-10-16T01:44:09.521Z,12.03
2018-10-16T01:46:38.703Z,11.93
2018-10-16T01:49:07.946Z,12.60
2018-10-16T01:51:37.146Z,12.53
2018-10-16T01:54:06.426Z,13.10
2018-10-16T01:56:35.692Z,13.23
2018-10-16T01:59:04.962Z,11.90
2018-10-16T02:01:34.218Z,13.00
2018-10-16T02:04:03.423Z,12.40
2018-10-16T02:06:32.663Z,12.70
2018-10-16T02:09:02.164Z,13.40
2018-10-16T02:11:31.387Z,12.97
2018-10-16T02:14:00.591Z,13.00
2018-10-16T02:16:29.827Z,12.27
2018-10-16T02:23:56.466Z,12.03
2018-10-16T02:26:25.683Z,12.33
2018-10-16T02:28:56.122Z,12.47
2018-10-16T02:31:25.384Z,13.00
2018-10-16T02:33:54.593Z,12.53
2018-10-16T02:36:23.803Z,13.45
2018-10-16T02:38:53.011Z,13.20
2018-10-16T02:41:22.246Z,12.53
2018-10-16T02:43:51.473Z,12.93
2018-10-16T02:46:20.695Z,13.00
2018-10-16T02:48:49.935Z,14.03
2018-10-16T02:51:19.149Z,13.27
2018-10-16T02:53:48.375Z,13.08
2018-10-16T02:56:17.611Z,13.73
2018-10-16T02:58:46.839Z,12.97
2018-10-16T03:01:16.117Z,14.07
2018-10-16T03:03:45.341Z,12.77
2018-10-16T03:06:14.549Z,13.23
2018-10-16T03:08:43.773Z,12.87
2018-10-16T03:11:13.000Z,12.27
2018-10-16T03:13:42.243Z,12.27
2018-10-16T03:16:11.495Z,12.93
2018-10-16T03:18:40.703Z,13.07
2018-10-16T03:21:09.926Z,12.40
2018-10-16T03:23:39.126Z,12.40
2018-10-16T03:26:08.354Z,12.30
2018-10-16T03:28:37.573Z,13.10
2018-10-16T03:31:06.822Z,12.53
2018-10-16T03:33:36.039Z,12.50
2018-10-16T03:36:05.795Z,13.23
2018-10-16T03:38:35.055Z,13.37
2018-10-16T03:41:04.282Z,12.47
2018-10-16T03:43:35.414Z,12.40
2018-10-16T03:46:04.718Z,12.73
2018-10-16T03:48:33.927Z,11.97
2018-10-16T03:51:03.167Z,12.03
2018-10-16T03:53:32.388Z,13.10
2018-10-16T03:56:01.608Z,13.13
2018-10-16T03:58:30.870Z,12.63
2018-10-16T04:01:00.079Z,12.60
2018-10-16T04:03:29.304Z,13.40
2018-10-16T04:05:58.518Z,13.40
2018-10-16T04:08:27.730Z,13.77
2018-10-16T04:10:56.990Z,13.53
2018-10-16T04:13:26.514Z,12.43
2018-10-16T04:15:55.715Z,12.20
2018-10-16T04:18:24.927Z,13.23
2018-10-16T04:20:54.172Z,14.23
2018-10-16T04:23:23.415Z,12.03
2018-10-16T04:25:52.666Z,13.22
2018-10-16T04:28:21.878Z,13.60
2018-10-16T04:30:51.106Z,13.53
2018-10-16T04:33:20.571Z,12.50
2018-10-16T04:35:49.847Z,13.13
2018-10-16T04:38:19.071Z,13.50
2018-10-16T04:40:48.307Z,13.47
2018-10-16T04:43:17.516Z,13.17
2018-10-16T04:45:46.754Z,12.07
2018-10-16T04:48:15.971Z,13.00
2018-10-16T04:50:45.197Z,13.33
2018-10-16T04:53:14.399Z,12.47
2018-10-16T04:55:43.661Z,13.30
2018-10-16T04:58:12.859Z,12.70
2018-10-16T05:00:42.087Z,13.48
2018-10-16T05:03:11.303Z,13.20
2018-10-16T05:05:41.764Z,13.47
2018-10-16T05:08:11.008Z,12.50
2018-10-16T05:10:40.218Z,12.67
2018-10-16T05:13:09.476Z,13.83
2018-10-16T05:15:38.650Z,13.90
2018-10-16T05:18:07.886Z,12.30
2018-10-16T05:20:37.101Z,11.87
2018-10-16T05:23:06.356Z,12.17
2018-10-16T05:25:35.595Z,11.60
2018-10-16T05:28:04.954Z,11.30
2018-10-16T05:30:34.148Z,11.10
2018-10-16T05:33:03.383Z,11.90
2018-10-16T05:35:32.619Z,12.20
2018-10-16T05:38:01.824Z,12.57
2018-10-16T05:40:31.038Z,11.87
2018-10-16T05:43:00.267Z,10.90
2018-10-16T05:45:31.799Z,11.33
2018-10-16T05:48:01.018Z,11.20
2018-10-16T05:50:30.254Z,10.90
2018-10-16T05:52:59.474Z,11.07
2018-10-16T05:55:28.706Z,12.07
2018-10-16T05:57:57.974Z,10.90
2018-10-16T06:00:40.404Z,11.23
2018-10-16T06:03:09.863Z,11.70
2018-10-16T06:05:39.228Z,12.03
2018-10-16T06:08:08.678Z,12.43
2018-10-16T06:10:38.223Z,11.83
2018-10-16T06:13:07.482Z,11.23
2018-10-16T06:15:36.702Z,11.67
2018-10-16T06:18:06.154Z,11.00
2018-10-16T06:20:35.481Z,10.18
2018-10-16T06:23:04.732Z,9.73
2018-10-16T06:25:33.935Z,10.60
2018-10-16T06:28:24.508Z,9.97
2018-10-16T06:30:53.725Z,10.23
2018-10-16T06:33:26.170Z,9.20
2018-10-16T06:35:55.316Z,8.73
2018-10-16T06:38:24.530Z,8.57
2018-10-16T06:40:53.963Z,8.77
2018-10-16T06:43:22.983Z,8.53
2018-10-16T06:45:52.194Z,8.27
2018-10-16T06:48:21.705Z,7.93
2018-10-16T06:50:50.683Z,7.50
2018-10-16T06:53:20.009Z,8.35
2018-10-16T06:55:49.195Z,8.27
2018-10-16T06:58:18.486Z,7.83
2018-10-16T07:00:47.722Z,8.10
2018-10-16T07:03:16.939Z,8.50
2018-10-16T07:05:46.430Z,9.60
2018-10-16T07:08:15.651Z,9.13
2018-10-16T07:10:44.917Z,11.37
2018-10-16T07:13:14.140Z,11.30
2018-10-16T07:15:43.396Z,10.67
2018-10-16T07:18:12.630Z,10.93
2018-10-16T07:21:12.283Z,10.60
2018-10-16T07:23:41.466Z,11.00
2018-10-16T07:26:10.677Z,10.90
2018-10-16T07:28:39.888Z,10.60
2018-10-16T07:31:09.122Z,10.10
2018-10-16T07:33:38.347Z,9.30
2018-10-16T07:36:07.617Z,9.60
2018-10-16T07:38:36.861Z,9.50
2018-10-16T07:41:06.058Z,9.07
2018-10-16T07:43:35.308Z,9.27
2018-10-16T07:46:04.642Z,9.83
2018-10-16T07:48:33.934Z,10.10
2018-10-16T07:51:03.094Z,9.90
2018-10-16T07:53:32.306Z,9.23
2018-10-16T07:56:01.562Z,9.77
2018-10-16T07:58:30.770Z,10.00
2018-10-16T08:01:00.007Z,9.37
2018-10-16T08:03:29.230Z,8.93
2018-10-16T08:05:58.474Z,9.37
2018-10-16T08:08:27.710Z,10.03
2018-10-16T08:10:55.985Z,8.93
2018-10-16T08:13:25.235Z,8.65
2018-10-16T08:15:54.458Z,8.93
2018-10-16T08:18:23.678Z,8.27
2018-10-16T08:20:52.893Z,8.50
2018-10-16T08:23:22.126Z,9.20
2018-10-16T08:25:51.343Z,9.40
2018-10-16T08:28:20.627Z,9.03
2018-10-16T08:30:49.848Z,9.58
2018-10-16T08:33:19.089Z,9.63
2018-10-16T08:35:48.367Z,9.55
2018-10-16T08:38:29.406Z,9.27
2018-10-16T08:40:58.887Z,9.20
2018-10-16T08:43:50.098Z,9.50
2018-10-16T08:46:36.167Z,9.03
2018-10-16T08:49:22.338Z,9.13
2018-10-16T08:51:54.925Z,8.35
2018-10-16T08:54:24.163Z,8.15
2018-10-16T08:56:53.410Z,8.57
2018-10-16T08:59:22.638Z,8.23
2018-10-16T09:01:51.879Z,8.18
2018-10-16T09:04:21.106Z,8.15
2018-10-16T09:06:50.390Z,7.72
2018-10-16T09:09:19.703Z,8.20
2018-10-16T09:11:49.390Z,6.93
2018-10-16T09:14:18.811Z,7.45
2018-10-16T09:16:48.028Z,7.35
2018-10-16T09:19:17.246Z,7.62
2018-10-16T09:21:46.464Z,7.50
2018-10-16T09:24:15.674Z,7.23
2018-10-16T09:26:44.906Z,7.58
2018-10-16T09:29:14.123Z,7.28
2018-10-16T09:31:43.390Z,7.50
2018-10-16T09:34:12.591Z,7.80
2018-10-16T09:36:41.836Z,7.77
2018-10-16T09:39:11.679Z,7.35
2018-10-16T09:41:40.917Z,7.12
2018-10-16T09:44:10.167Z,7.70
2018-10-16T09:46:39.602Z,7.67
2018-10-16T09:49:08.845Z,7.57
2018-10-16T09:51:38.687Z,6.86
2018-10-16T09:54:07.888Z,7.62
2018-10-16T09:56:37.204Z,7.60
2018-10-16T09:59:06.414Z,7.40
2018-10-16T10:01:40.842Z,7.55
2018-10-16T10:04:10.063Z,6.80
2018-10-16T10:06:39.313Z,7.42
2018-10-16T10:09:11.755Z,7.12
2018-10-16T10:11:41.166Z,7.55
2018-10-16T10:14:10.379Z,7.00
2018-10-16T10:16:40.079Z,7.13
2018-10-16T10:19:09.667Z,7.78
2018-10-16T10:21:38.909Z,6.95
2018-10-16T10:24:08.106Z,7.30
2018-10-16T10:26:37.411Z,7.07
2018-10-16T10:29:06.641Z,7.25
2018-10-16T10:31:35.902Z,7.00
2018-10-16T10:34:05.219Z,7.47
2018-10-16T10:36:34.448Z,7.37
2018-10-16T10:39:04.997Z,7.10
2018-10-16T10:41:34.217Z,6.90
2018-10-16T10:44:05.011Z,7.03
2018-10-16T10:46:34.234Z,6.72
2018-10-16T10:49:03.462Z,7.07
2018-10-16T10:51:32.990Z,7.10
2018-10-16T10:54:01.890Z,6.95
2018-10-16T10:56:31.189Z,7.13
2018-10-16T10:59:00.352Z,6.75
2018-10-16T11:01:29.606Z,6.87
2018-10-16T11:03:58.866Z,7.10
2018-10-16T11:06:28.078Z,7.33
2018-10-16T11:08:57.409Z,6.77
2018-10-16T11:11:26.631Z,6.80
2018-10-16T11:13:55.868Z,6.83
2018-10-16T11:16:25.097Z,6.93
2018-10-16T11:18:54.311Z,6.40
2018-10-16T11:21:23.541Z,6.80
2018-10-16T11:23:52.803Z,6.40
2018-10-16T11:26:22.026Z,6.60
2018-10-16T11:28:51.267Z,6.60
2018-10-16T11:31:20.547Z,6.10
2018-10-16T11:33:49.774Z,6.03
2018-10-16T11:36:18.992Z,5.80
2018-10-16T11:38:48.230Z,5.93
2018-10-16T11:41:17.478Z,5.97
2018-10-16T11:43:47.645Z,5.78
2018-10-16T11:46:16.889Z,5.97
2018-10-16T11:48:46.106Z,5.85
2018-10-16T11:51:15.328Z,5.67
2018-10-16T11:53:44.531Z,4.72
2018-10-16T11:56:13.861Z,5.20
2018-10-16T11:58:42.986Z,5.42
2018-10-16T12:01:12.182Z,5.37
2018-10-16T12:03:41.429Z,4.97
2018-10-16T12:06:10.687Z,5.60
2018-10-16T12:08:39.893Z,6.22
2018-10-16T12:11:09.240Z,6.20
2018-10-16T12:13:38.360Z,6.43
2018-10-16T12:16:07.557Z,6.23
2018-10-16T12:19:10.892Z,6.17
2018-10-16T12:21:40.022Z,6.33
2018-10-16T12:24:09.280Z,6.55
2018-10-16T12:26:38.488Z,6.07
2018-10-16T12:29:07.980Z,6.00
2018-10-16T12:31:37.175Z,6.57
2018-10-16T12:34:08.470Z,6.70
2018-10-16T12:36:37.690Z,6.40
2018-10-16T12:39:09.280Z,6.30
2018-10-16T12:41:38.427Z,6.47
2018-10-16T12:44:07.919Z,6.33
2018-10-16T12:46:37.128Z,6.00
2018-10-16T12:49:06.387Z,5.92
2018-10-16T12:51:35.635Z,6.80
2018-10-16T12:54:05.099Z,6.37
2018-10-16T12:56:34.288Z,6.10
2018-10-16T12:59:04.161Z,6.54
2018-10-16T13:01:33.343Z,6.50
2018-10-16T13:04:02.578Z,6.12
2018-10-16T13:06:31.815Z,5.80
2018-10-16T13:09:01.125Z,5.87
2018-10-16T13:11:30.276Z,5.97
2018-10-16T13:13:59.516Z,5.72
2018-10-16T13:16:28.743Z,5.80
2018-10-16T13:18:57.981Z,5.53
2018-10-16T13:21:27.223Z,5.60
2018-10-16T13:23:56.482Z,5.80
2018-10-16T13:26:25.667Z,5.60
2018-10-16T13:28:54.954Z,5.50
2018-10-16T13:31:24.130Z,5.13
2018-10-16T13:33:53.368Z,5.72
2018-10-16T13:36:22.572Z,5.92
2018-10-16T13:38:51.839Z,5.90
2018-10-16T13:41:21.058Z,5.87
2018-10-16T13:43:50.256Z,5.40
2018-10-16T13:46:19.509Z,5.55
2018-10-16T13:48:48.711Z,5.95
2018-10-16T13:51:17.943Z,5.62
2018-10-16T13:53:47.140Z,5.50
2018-10-16T13:56:16.477Z,5.77
2018-10-16T13:58:45.590Z,5.65
2018-10-16T14:01:14.811Z,5.37
2018-10-16T14:03:44.043Z,5.60
2018-10-16T14:06:13.281Z,5.50
2018-10-16T14:08:42.492Z,5.30
2018-10-16T14:11:11.711Z,5.83
2018-10-16T14:13:40.940Z,5.45
2018-10-16T14:16:10.232Z,5.23
2018-10-16T14:18:39.383Z,5.33
2018-10-16T14:21:10.677Z,4.95
2018-10-16T14:23:40.383Z,5.52
2018-10-16T14:26:09.687Z,5.20
2018-10-16T14:28:38.870Z,5.17
2018-10-16T14:31:08.117Z,5.77
2018-10-16T14:33:37.358Z,5.50
2018-10-16T14:36:06.606Z,5.28
2018-10-16T14:38:35.834Z,5.70
2018-10-16T14:41:05.060Z,5.57
2018-10-16T14:43:34.299Z,5.70
2018-10-16T14:46:03.832Z,5.67
2018-10-16T14:48:33.015Z,5.60
2018-10-16T14:51:02.234Z,5.58
2018-10-16T14:53:31.453Z,5.33
2018-10-16T14:56:00.718Z,5.17
2018-10-16T14:58:29.945Z,5.12
2018-10-16T15:00:59.165Z,5.42
2018-10-16T15:03:28.401Z,5.10
2018-10-16T15:05:57.642Z,5.60
2018-10-16T15:08:26.867Z,4.87
2018-10-16T15:10:56.087Z,5.22
2018-10-16T15:13:25.310Z,4.87
2018-10-16T15:15:54.632Z,5.23
2018-10-16T15:18:23.913Z,5.47
2018-10-16T15:20:53.121Z,5.15
2018-10-16T15:23:22.355Z,5.80
2018-10-16T15:25:51.569Z,5.45
2018-10-16T15:28:20.791Z,5.30
2018-10-16T15:30:50.004Z,5.33
2018-10-16T15:33:19.222Z,5.10
2018-10-16T15:35:48.531Z,5.17
2018-10-16T15:38:17.974Z,5.60
2018-10-16T15:40:47.207Z,5.63
2018-10-16T15:43:16.410Z,5.03
2018-10-16T15:45:45.638Z,5.50
2018-10-16T15:48:14.955Z,5.58
2018-10-16T15:50:44.144Z,5.77
2018-10-16T15:53:13.299Z,5.37
2018-10-16T15:55:42.515Z,5.47
2018-10-16T15:58:11.795Z,5.45
2018-10-16T16:00:41.001Z,5.63
2018-10-16T16:03:10.230Z,6.27
2018-10-16T16:05:39.434Z,5.73
2018-10-16T16:08:08.737Z,5.90
2018-10-16T16:10:37.881Z,5.90
2018-10-16T16:13:08.009Z,6.03
2018-10-16T16:15:37.342Z,6.80
2018-10-16T16:18:06.765Z,5.80
2018-10-16T16:20:35.901Z,6.73
2018-10-16T16:23:05.139Z,6.57
2018-10-16T16:25:34.419Z,6.83
2018-10-16T16:28:03.648Z,7.03
2018-10-16T16:30:32.823Z,6.20
2018-10-16T16:33:02.048Z,6.77
2018-10-16T16:35:31.284Z,7.00
2018-10-16T16:38:00.505Z,7.50
2018-10-16T16:40:29.723Z,7.50
2018-10-16T16:42:59.022Z,7.80
2018-10-16T16:45:28.252Z,8.03
2018-10-16T16:47:57.502Z,8.47
2018-10-16T16:50:26.715Z,7.53
2018-10-16T16:52:55.996Z,8.00
2018-10-16T16:55:25.144Z,8.00
2018-10-16T16:57:54.402Z,8.87
2018-10-16T17:00:23.615Z,7.97
2018-10-16T17:02:52.870Z,8.93
2018-10-16T17:05:22.074Z,9.10
2018-10-16T17:07:51.359Z,9.30
2018-10-16T17:10:21.318Z,8.90
2018-10-16T17:12:50.585Z,9.30
2018-10-16T17:15:19.801Z,9.33
2018-10-16T17:17:49.079Z,9.23
2018-10-16T17:20:18.271Z,8.73
2018-10-16T17:22:47.558Z,9.67
2018-10-16T17:25:16.929Z,9.60
2018-10-16T17:27:46.088Z,11.73
2018-10-16T17:30:16.910Z,12.50
2018-10-16T17:32:46.542Z,11.20
2018-10-16T17:35:16.462Z,10.70
2018-10-16T17:37:45.720Z,10.47
2018-10-16T17:40:16.341Z,10.35
2018-10-16T17:42:45.798Z,9.80
2018-10-16T17:45:16.243Z,9.37
2018-10-16T17:47:45.672Z,9.47
2018-10-16T17:50:17.623Z,9.70
2018-10-16T17:52:46.944Z,9.47
2018-10-16T17:55:16.651Z,9.43
2018-10-16T17:57:45.921Z,9.67
2018-10-16T18:00:17.417Z,10.10
2018-10-16T18:02:47.506Z,10.40
2018-10-16T18:05:16.955Z,10.17
2018-10-16T18:07:46.342Z,10.23
2018-10-16T18:10:15.607Z,9.60
2018-10-16T18:12:45.850Z,10.40
2018-10-16T18:15:16.655Z,10.70
2018-10-16T18:17:45.879Z,9.87
2018-10-16T18:20:16.172Z,10.27
2018-10-16T18:22:45.853Z,10.10
2018-10-16T18:25:15.106Z,10.53
2018-10-16T18:27:45.093Z,10.33
2018-10-16T18:30:14.627Z,10.13
2018-10-16T18:32:44.122Z,10.57
2018-10-16T18:35:13.582Z,10.63
2018-10-16T18:37:43.655Z,10.37
2018-10-16T18:40:13.404Z,10.80
2018-10-16T18:42:42.805Z,10.00
2018-10-16T18:45:13.307Z,11.10
2018-10-16T18:47:42.466Z,10.90
2018-10-16T18:50:12.853Z,10.57
2018-10-16T18:52:42.850Z,10.82
2018-10-16T18:55:13.331Z,10.83
2018-10-16T18:57:42.639Z,10.87
2018-10-16T19:00:14.187Z,11.07
2018-10-16T19:02:43.422Z,10.37
2018-10-16T19:05:12.641Z,10.77
2018-10-16T19:07:42.420Z,10.33
2018-10-16T19:10:11.620Z,10.50
2018-10-16T19:12:41.665Z,11.47
2018-10-16T19:15:13.602Z,10.90
2018-10-16T19:17:43.739Z,12.50
2018-10-16T19:20:13.973Z,11.97
2018-10-16T19:22:43.882Z,11.10
2018-10-16T19:25:14.404Z,20.27
2018-10-16T19:27:43.688Z,30.43
2018-10-16T19:30:13.263Z,15.50
2018-10-16T19:32:42.493Z,13.87
2018-10-16T19:35:12.964Z,12.43
2018-10-16T19:37:42.482Z,12.47
2018-10-16T19:40:11.758Z,13.17
2018-10-16T19:42:41.135Z,14.70
2018-10-16T19:45:11.067Z,14.53
2018-10-16T19:47:40.184Z,13.90
2018-10-16T19:50:10.130Z,12.90
2018-10-16T19:52:39.402Z,12.93
2018-10-16T19:55:08.671Z,12.77
2018-10-16T19:57:37.894Z,12.43
2018-10-16T20:00:08.335Z,14.30
2018-10-16T20:02:37.590Z,14.80
2018-10-16T20:05:07.439Z,18.57
2018-10-16T20:07:36.655Z,16.87
2018-10-16T20:10:07.094Z,16.57
2018-10-16T20:12:36.598Z,14.65
2018-10-16T20:15:07.697Z,14.13
2018-10-16T20:17:37.163Z,13.57
2018-10-16T20:20:07.402Z,12.93
2018-10-16T20:22:36.630Z,13.15
2018-10-16T20:25:06.660Z,14.03
2018-10-16T20:27:35.815Z,14.50
2018-10-16T20:30:05.914Z,14.20
2018-10-16T20:32:35.347Z,13.60
2018-10-16T20:35:04.872Z,12.75
2018-10-16T20:37:34.108Z,12.47
2018-10-16T20:40:03.351Z,12.37
2018-10-16T20:42:32.606Z,13.43
2018-10-16T20:45:01.861Z,12.50
2018-10-16T20:47:31.151Z,12.67
2018-10-16T20:50:00.387Z,12.43
2018-10-16T20:52:29.619Z,11.60
2018-10-16T20:54:59.092Z,11.70
2018-10-16T20:57:28.289Z,12.50
2018-10-16T20:59:58.038Z,12.17
2018-10-16T21:02:27.290Z,12.37
2018-10-16T21:04:56.680Z,11.93
2018-10-16T21:07:25.845Z,11.33
2018-10-16T21:09:54.998Z,12.30
2018-10-16T21:12:24.215Z,12.57
2018-10-16T21:19:52.473Z,13.80
2018-10-16T21:22:21.686Z,13.78
2018-10-16T21:24:51.995Z,13.38
2018-10-16T21:27:21.198Z,13.67
2018-10-16T21:29:50.471Z,14.10
2018-10-16T21:32:19.694Z,13.08
2018-10-16T21:34:49.721Z,15.10
2018-10-16T21:37:19.004Z,13.60
2018-10-16T21:39:48.263Z,13.87
2018-10-16T21:42:17.485Z,14.13
2018-10-16T21:44:46.794Z,13.30
2018-10-16T21:47:16.075Z,14.03
2018-10-16T21:49:45.319Z,14.40
2018-10-16T21:52:14.527Z,13.53
2018-10-16T21:54:43.768Z,14.67
2018-10-16T21:57:12.986Z,14.40
2018-10-16T21:59:42.268Z,13.47
2018-10-16T22:02:16.735Z,13.63
2018-10-16T22:04:45.979Z,13.90
2018-10-16T22:07:15.361Z,13.93
2018-10-16T22:09:44.527Z,13.57
2018-10-16T22:12:13.795Z,14.13
2018-10-16T22:14:43.027Z,13.97
2018-10-16T22:17:12.408Z,15.47
2018-10-16T22:19:41.563Z,16.87
2018-10-16T22:22:10.817Z,16.63
2018-10-16T22:24:40.049Z,15.60
2018-10-16T22:27:09.296Z,15.67
2018-10-16T22:29:38.637Z,16.17
2018-10-16T22:32:07.875Z,14.77
2018-10-16T22:34:37.126Z,15.32
2018-10-16T22:37:06.440Z,14.10
2018-10-16T22:39:35.635Z,13.53
2018-10-16T22:42:04.962Z,13.60
2018-10-16T22:44:34.258Z,12.37
2018-10-16T22:47:03.523Z,13.50
2018-10-16T22:49:32.736Z,13.20
2018-10-16T22:52:02.048Z,14.70
2018-10-16T22:54:31.303Z,14.10
2018-10-16T22:57:00.599Z,15.57
2018-10-16T22:59:29.878Z,14.90
2018-10-16T23:01:59.277Z,14.33
2018-10-16T23:04:28.484Z,15.50
2018-10-16T23:06:57.761Z,15.57
2018-10-16T23:09:27.018Z,14.40
2018-10-16T23:11:56.271Z,14.97
2018-10-16T23:14:25.507Z,15.37
2018-10-16T23:16:54.783Z,15.07
2018-10-16T23:19:23.943Z,14.43
2018-10-16T23:21:53.201Z,13.80
2018-10-16T23:24:22.419Z,14.23
2018-10-16T23:26:51.770Z,13.60
2018-10-16T23:29:20.976Z,14.20
2018-10-16T23:31:50.198Z,14.23
2018-10-16T23:34:19.451Z,14.10
2018-10-16T23:36:48.667Z,14.13
2018-10-16T23:39:17.885Z,15.53
2018-10-16T23:41:47.106Z,15.20
2018-10-16T23:44:16.340Z,14.97
2018-10-16T23:46:45.602Z,14.97
2018-10-16T23:49:14.881Z,14.20
2018-10-16T23:51:44.083Z,13.97
2018-10-16T23:54:13.367Z,14.50
2018-10-16T23:56:42.594Z,14.70
2018-10-16T23:59:11.839Z,15.03
